createdAt,value
2022-10-25T00:02:18.554Z,1.88
2022-10-25T00:04:45.354Z,1.50
2022-10-25T00:07:11.742Z,1.70
2022-10-25T00:09:38.092Z,1.85
2022-10-25T00:12:04.929Z,2.00
2022-10-25T00:14:31.828Z,1.77
2022-10-25T00:16:58.248Z,1.80
2022-10-25T00:19:24.581Z,1.35
2022-10-25T00:21:50.942Z,1.73
2022-10-25T00:24:17.244Z,1.48
2022-10-25T00:26:43.700Z,1.33
2022-10-25T00:29:10.770Z,1.55
2022-10-25T00:31:37.580Z,1.20
2022-10-25T00:34:04.454Z,1.70
2022-10-25T00:36:31.267Z,1.65
2022-10-25T00:38:58.293Z,1.70
2022-10-25T00:41:27.160Z,1.98
2022-10-25T00:43:55.893Z,1.83
2022-10-25T00:46:28.032Z,1.85
2022-10-25T00:49:08.489Z,1.40
2022-10-25T00:51:37.051Z,1.05
2022-10-25T00:54:03.718Z,1.48
2022-10-25T00:56:32.017Z,1.83
2022-10-25T00:59:00.998Z,1.83
2022-10-25T01:01:27.605Z,2.05
2022-10-25T01:03:55.484Z,1.80
2022-10-25T01:06:38.453Z,2.30
2022-10-25T01:09:05.573Z,1.27
2022-10-25T01:11:31.965Z,2.08
2022-10-25T01:13:58.784Z,1.38
2022-10-25T01:16:25.212Z,1.52
2022-10-25T01:18:51.604Z,1.70
2022-10-25T01:21:29.996Z,2.15
2022-10-25T01:24:02.474Z,1.90
2022-10-25T01:26:47.282Z,1.85
2022-10-25T01:29:16.534Z,1.85
2022-10-25T01:31:48.531Z,1.95
2022-10-25T01:34:20.853Z,2.28
2022-10-25T01:36:56.112Z,2.00
2022-10-25T01:39:28.466Z,1.20
2022-10-25T01:42:06.183Z,1.58
2022-10-25T01:44:44.857Z,2.08
2022-10-25T01:47:18.808Z,1.92
2022-10-25T01:49:53.254Z,2.20
2022-10-25T01:52:23.259Z,1.77
2022-10-25T01:54:50.254Z,1.73
2022-10-25T01:57:25.174Z,2.17
2022-10-25T02:00:01.039Z,1.58
2022-10-25T02:05:00.644Z,1.88
2022-10-25T02:07:33.826Z,1.35
2022-10-25T02:12:47.827Z,2.15
2022-10-25T02:15:21.390Z,1.83
2022-10-25T02:17:52.024Z,1.88
2022-10-25T02:20:19.141Z,2.45
2022-10-25T02:22:46.471Z,1.90
2022-10-25T02:25:13.851Z,2.13
2022-10-25T02:27:40.749Z,1.75
2022-10-25T02:30:07.512Z,2.75
2022-10-25T02:32:33.955Z,2.55
2022-10-25T02:35:00.316Z,2.03
2022-10-25T02:37:26.680Z,1.73
2022-10-25T02:39:53.196Z,2.33
2022-10-25T02:42:19.568Z,2.50
2022-10-25T02:44:45.898Z,1.90
2022-10-25T02:47:12.300Z,2.00
2022-10-25T02:49:38.639Z,2.80
2022-10-25T02:52:04.951Z,2.05
2022-10-25T02:54:31.264Z,2.17
2022-10-25T02:56:57.600Z,2.28
2022-10-25T02:59:24.550Z,1.95
2022-10-25T03:01:50.946Z,1.88
2022-10-25T03:04:17.300Z,2.35
2022-10-25T03:06:43.678Z,1.27
2022-10-25T03:09:09.990Z,2.05
2022-10-25T03:11:36.329Z,3.28
2022-10-25T03:14:02.706Z,1.92
2022-10-25T03:16:29.158Z,1.67
2022-10-25T03:18:59.002Z,1.85
2022-10-25T03:21:25.602Z,2.13
2022-10-25T03:23:52.408Z,2.45
2022-10-25T03:26:18.744Z,1.80
2022-10-25T03:28:45.104Z,2.42
2022-10-25T03:31:12.579Z,1.65
2022-10-25T03:33:39.006Z,2.25
2022-10-25T03:36:05.436Z,2.33
2022-10-25T03:38:31.795Z,1.88
2022-10-25T03:40:58.365Z,2.45
2022-10-25T03:43:24.893Z,2.22
2022-10-25T03:45:51.267Z,2.90
2022-10-25T03:48:17.660Z,2.10
2022-10-25T03:50:44.052Z,2.00
2022-10-25T03:53:11.070Z,2.10
2022-10-25T03:55:37.732Z,2.38
2022-10-25T03:58:04.098Z,1.92
2022-10-25T04:00:30.456Z,1.40
2022-10-25T04:03:01.778Z,2.20
2022-10-25T04:05:28.956Z,2.50
2022-10-25T04:07:55.306Z,1.67
2022-10-25T04:10:21.880Z,1.83
2022-10-25T04:12:48.501Z,1.95
2022-10-25T04:15:15.018Z,1.60
2022-10-25T04:17:41.497Z,1.88
2022-10-25T04:20:08.051Z,1.45
2022-10-25T04:22:34.422Z,1.48
2022-10-25T04:25:00.793Z,2.33
2022-10-25T04:27:27.114Z,2.00
2022-10-25T04:29:53.477Z,1.75
2022-10-25T04:34:51.028Z,1.88
2022-10-25T04:37:17.420Z,1.95
2022-10-25T04:39:43.808Z,1.98
2022-10-25T04:44:41.429Z,2.03
2022-10-25T04:47:07.815Z,2.30
2022-10-25T04:49:34.182Z,2.15
2022-10-25T04:52:00.509Z,3.45
2022-10-25T04:54:27.035Z,1.60
2022-10-25T04:56:53.349Z,2.22
2022-10-25T04:59:19.647Z,2.78
2022-10-25T05:01:46.175Z,2.00
2022-10-25T05:04:12.591Z,2.63
2022-10-25T05:06:38.915Z,1.98
2022-10-25T05:09:05.308Z,1.88
2022-10-25T05:11:32.622Z,1.60
2022-10-25T05:13:59.019Z,2.17
2022-10-25T05:16:26.009Z,2.00
2022-10-25T05:18:54.484Z,2.10
2022-10-25T05:21:21.433Z,1.85
2022-10-25T05:23:47.835Z,2.33
2022-10-25T05:26:14.215Z,1.73
2022-10-25T05:28:41.408Z,1.75
2022-10-25T05:33:40.120Z,2.35
2022-10-25T05:36:06.585Z,1.15
2022-10-25T05:38:35.607Z,1.42
2022-10-25T05:41:04.627Z,1.73
2022-10-25T05:43:31.426Z,2.00
2022-10-25T05:46:03.018Z,1.95
2022-10-25T05:48:29.350Z,1.88
2022-10-25T05:51:20.932Z,1.73
2022-10-25T05:53:54.956Z,1.73
2022-10-25T05:56:22.763Z,2.33
2022-10-25T05:58:49.122Z,2.13
2022-10-25T06:01:17.212Z,1.98
2022-10-25T06:03:43.977Z,2.33
2022-10-25T06:06:11.177Z,2.10
2022-10-25T06:08:38.033Z,2.00
2022-10-25T06:11:05.714Z,2.10
2022-10-25T06:13:32.032Z,2.72
2022-10-25T06:15:58.495Z,2.13
2022-10-25T06:18:24.843Z,2.55
2022-10-25T06:20:51.191Z,2.17
2022-10-25T06:23:17.530Z,2.00
2022-10-25T06:25:43.921Z,2.75
2022-10-25T06:28:10.537Z,1.58
2022-10-25T06:30:46.449Z,2.40
2022-10-25T06:33:12.760Z,2.45
2022-10-25T06:35:39.066Z,1.92
2022-10-25T06:38:05.400Z,2.17
2022-10-25T06:40:31.771Z,2.17
2022-10-25T06:42:58.103Z,3.03
2022-10-25T06:45:24.485Z,2.40
2022-10-25T06:47:50.792Z,2.65
2022-10-25T06:50:17.274Z,1.77
2022-10-25T06:52:43.797Z,2.67
2022-10-25T06:55:10.173Z,2.50
2022-10-25T06:57:36.481Z,2.38
2022-10-25T07:00:03.047Z,2.95
2022-10-25T07:02:29.639Z,2.50
2022-10-25T07:04:56.097Z,2.90
2022-10-25T07:07:22.490Z,2.20
2022-10-25T07:09:48.820Z,2.58
2022-10-25T07:12:15.095Z,2.63
2022-10-25T07:14:41.460Z,3.20
2022-10-25T07:17:07.800Z,2.80
2022-10-25T07:19:34.161Z,2.28
2022-10-25T07:22:00.656Z,2.63
2022-10-25T07:24:26.972Z,2.60
2022-10-25T07:26:53.247Z,2.70
2022-10-25T07:29:19.613Z,2.38
2022-10-25T07:31:46.070Z,2.70
2022-10-25T07:34:14.359Z,2.85
2022-10-25T07:36:40.754Z,2.28
2022-10-25T07:39:07.127Z,2.40
2022-10-25T07:41:33.717Z,2.38
2022-10-25T07:44:00.096Z,2.70
2022-10-25T07:46:26.401Z,2.35
2022-10-25T07:48:52.701Z,2.38
2022-10-25T07:51:19.261Z,2.80
2022-10-25T07:53:45.536Z,2.72
2022-10-25T07:56:12.836Z,3.10
2022-10-25T07:58:39.146Z,2.78
2022-10-25T08:01:09.251Z,2.40
2022-10-25T08:03:35.628Z,2.22
2022-10-25T08:06:02.240Z,2.17
2022-10-25T08:08:29.146Z,2.53
2022-10-25T08:10:55.972Z,2.40
2022-10-25T08:13:22.791Z,2.30
2022-10-25T08:15:52.570Z,2.20
2022-10-25T08:18:18.938Z,1.58
2022-10-25T08:21:02.801Z,1.90
2022-10-25T08:23:31.366Z,2.03
2022-10-25T08:25:57.925Z,1.88
2022-10-25T08:28:24.304Z,2.20
2022-10-25T08:30:50.634Z,2.00
2022-10-25T08:33:16.973Z,2.05
2022-10-25T08:35:43.371Z,1.85
2022-10-25T08:38:09.660Z,2.15
2022-10-25T08:40:43.387Z,1.45
2022-10-25T08:43:12.745Z,2.13
2022-10-25T08:45:43.750Z,1.85
2022-10-25T08:48:14.272Z,1.85
2022-10-25T08:50:42.399Z,2.65
2022-10-25T08:53:13.716Z,1.98
2022-10-25T08:55:58.838Z,1.90
2022-10-25T08:58:28.549Z,2.40
2022-10-25T09:00:56.145Z,2.42
2022-10-25T09:03:25.626Z,2.80
2022-10-25T09:06:00.032Z,2.25
2022-10-25T09:08:32.473Z,3.00
2022-10-25T09:11:20.226Z,3.00
2022-10-25T09:14:05.472Z,2.33
2022-10-25T09:16:52.112Z,2.35
2022-10-25T09:19:24.697Z,2.88
2022-10-25T09:21:51.437Z,2.80
2022-10-25T09:24:20.836Z,3.25
2022-10-25T09:27:06.733Z,3.67
2022-10-25T09:29:55.503Z,3.22
2022-10-25T09:32:24.026Z,3.08
2022-10-25T09:34:50.687Z,3.47
2022-10-25T09:37:18.391Z,3.17
2022-10-25T09:39:47.067Z,2.70
2022-10-25T09:42:20.059Z,2.78
2022-10-25T09:44:59.560Z,2.88
2022-10-25T09:47:33.057Z,3.58
2022-10-25T09:50:10.950Z,4.10
2022-10-25T09:52:57.262Z,3.13
2022-10-25T09:55:23.581Z,3.75
2022-10-25T09:57:50.106Z,4.00
2022-10-25T10:00:16.690Z,3.83
2022-10-25T10:02:43.619Z,3.42
2022-10-25T10:05:14.587Z,3.28
2022-10-25T10:07:41.258Z,2.85
2022-10-25T10:10:10.244Z,4.00
2022-10-25T10:12:43.634Z,4.03
2022-10-25T10:15:22.269Z,3.80
2022-10-25T10:18:00.567Z,3.45
2022-10-25T10:20:26.904Z,3.55
2022-10-25T10:22:54.195Z,3.42
2022-10-25T10:25:22.663Z,2.80
2022-10-25T10:27:50.508Z,3.05
2022-10-25T10:30:24.307Z,2.08
2022-10-25T10:32:57.341Z,3.35
2022-10-25T10:35:27.584Z,3.38
2022-10-25T10:38:12.586Z,2.92
2022-10-25T10:40:38.903Z,3.25
2022-10-25T10:43:34.735Z,2.35
2022-10-25T10:46:02.898Z,2.80
2022-10-25T10:48:32.343Z,2.67
2022-10-25T10:50:58.725Z,2.47
2022-10-25T10:53:29.523Z,2.88
2022-10-25T10:55:56.822Z,2.55
2022-10-25T10:58:23.108Z,2.95
2022-10-25T11:00:58.540Z,2.78
2022-10-25T11:03:58.758Z,2.00
2022-10-25T11:06:34.069Z,2.80
2022-10-25T11:09:12.824Z,2.60
2022-10-25T11:11:39.553Z,2.30
2022-10-25T11:14:13.682Z,2.20
2022-10-25T11:16:40.383Z,2.50
2022-10-25T11:19:25.198Z,2.40
2022-10-25T11:22:10.219Z,2.38
2022-10-25T11:24:51.241Z,2.00
2022-10-25T11:27:35.764Z,1.77
2022-10-25T11:30:16.140Z,1.67
2022-10-25T11:32:47.613Z,1.85
2022-10-25T11:35:22.933Z,2.30
2022-10-25T11:37:57.433Z,2.72
2022-10-25T11:40:36.043Z,3.42
2022-10-25T11:43:25.737Z,2.47
2022-10-25T11:46:11.837Z,2.13
2022-10-25T11:48:44.154Z,1.95
2022-10-25T11:51:22.319Z,2.13
2022-10-25T11:54:06.846Z,2.28
2022-10-25T11:56:48.472Z,2.58
2022-10-25T11:59:20.681Z,2.47
2022-10-25T12:01:47.003Z,2.70
2022-10-25T12:04:20.170Z,2.38
2022-10-25T12:06:58.386Z,2.92
2022-10-25T12:09:34.004Z,2.13
2022-10-25T12:12:05.308Z,1.55
2022-10-25T12:14:46.090Z,2.13
2022-10-25T12:17:23.436Z,1.70
2022-10-25T12:19:51.436Z,1.55
2022-10-25T12:22:21.087Z,1.60
2022-10-25T12:24:50.498Z,1.55
2022-10-25T12:27:18.634Z,1.80
2022-10-25T12:29:49.698Z,1.70
2022-10-25T12:32:20.359Z,1.50
2022-10-25T12:34:53.705Z,1.77
2022-10-25T12:37:41.092Z,1.13
2022-10-25T12:40:14.115Z,1.40
2022-10-25T12:42:43.610Z,1.48
2022-10-25T12:45:12.694Z,1.30
2022-10-25T12:47:57.974Z,1.85
2022-10-25T12:50:33.131Z,1.37
2022-10-25T12:53:07.586Z,2.38
2022-10-25T12:55:39.891Z,1.63
2022-10-25T12:58:06.157Z,1.40
2022-10-25T13:00:39.960Z,1.40
2022-10-25T13:03:10.343Z,1.65
2022-10-25T13:05:39.956Z,1.58
2022-10-25T13:08:07.204Z,1.52
2022-10-25T13:10:37.156Z,2.83
2022-10-25T13:13:05.585Z,1.60
2022-10-25T13:15:43.369Z,1.48
2022-10-25T13:18:28.162Z,1.10
2022-10-25T13:20:54.576Z,1.30
2022-10-25T13:23:39.503Z,1.65
2022-10-25T13:26:08.109Z,1.50
2022-10-25T13:28:44.248Z,1.45
2022-10-25T13:31:29.491Z,2.38
2022-10-25T13:34:13.925Z,1.42
2022-10-25T13:36:56.654Z,1.00
2022-10-25T13:39:32.189Z,1.60
2022-10-25T13:42:10.871Z,1.50
2022-10-25T13:44:38.512Z,1.27
2022-10-25T13:47:05.389Z,1.45
2022-10-25T13:49:36.303Z,1.50
2022-10-25T13:52:05.411Z,1.08
2022-10-25T13:54:41.236Z,1.85
2022-10-25T14:14:23.284Z,1.20
2022-10-25T14:17:09.892Z,1.57
2022-10-25T14:19:50.644Z,1.70
2022-10-25T14:22:18.450Z,1.00
2022-10-25T14:24:47.743Z,1.10
2022-10-25T14:27:30.728Z,1.00
2022-10-25T14:40:02.022Z,1.15
2022-10-25T14:42:28.518Z,1.50
2022-10-25T14:44:54.840Z,0.95
2022-10-25T14:47:28.887Z,1.48
2022-10-25T14:49:57.161Z,1.65
2022-10-25T14:52:24.000Z,1.33
2022-10-25T14:55:13.089Z,1.17
2022-10-25T14:57:39.399Z,1.08
2022-10-25T15:00:06.019Z,1.00
2022-10-25T15:02:37.279Z,0.90
2022-10-25T15:05:04.433Z,1.15
2022-10-25T15:07:32.366Z,1.67
2022-10-25T15:10:00.184Z,1.50
2022-10-25T15:12:27.662Z,0.90
2022-10-25T15:14:54.788Z,1.85
2022-10-25T15:17:30.652Z,1.27
2022-10-25T15:20:26.353Z,1.48
2022-10-25T15:23:00.996Z,1.37
2022-10-25T15:25:30.051Z,1.98
2022-10-25T15:27:56.837Z,1.40
2022-10-25T15:30:52.652Z,1.63
2022-10-25T15:33:20.303Z,1.63
2022-10-25T15:35:50.684Z,1.63
2022-10-25T15:38:17.536Z,1.50
2022-10-25T15:40:44.725Z,1.30
2022-10-25T15:43:11.014Z,1.42
2022-10-25T15:45:40.472Z,1.20
2022-10-25T15:48:10.256Z,1.30
2022-10-25T15:50:38.573Z,1.67
2022-10-25T15:53:04.887Z,1.77
2022-10-25T15:55:33.088Z,2.53
2022-10-25T15:58:00.708Z,1.27
2022-10-25T16:00:28.336Z,1.30
2022-10-25T16:02:55.028Z,1.60
2022-10-25T16:05:23.048Z,1.38
2022-10-25T16:07:49.867Z,1.33
2022-10-25T16:10:16.876Z,1.23
2022-10-25T16:12:44.195Z,1.00
2022-10-25T16:15:12.096Z,1.40
2022-10-25T16:17:38.389Z,1.08
2022-10-25T16:20:05.953Z,1.30
2022-10-25T16:22:32.320Z,1.33
2022-10-25T16:24:58.637Z,1.00
2022-10-25T16:27:24.973Z,1.20
2022-10-25T16:29:51.269Z,1.52
2022-10-25T16:32:18.624Z,0.75
2022-10-25T16:34:45.996Z,1.33
2022-10-25T16:37:12.304Z,1.77
2022-10-25T16:39:38.661Z,1.08
2022-10-25T16:42:05.083Z,0.82
2022-10-25T16:44:31.653Z,1.35
2022-10-25T16:46:59.066Z,1.80
2022-10-25T16:49:25.348Z,0.55
2022-10-25T16:51:52.324Z,1.40
2022-10-25T16:54:21.915Z,1.63
2022-10-25T16:56:50.289Z,0.90
2022-10-25T16:59:16.559Z,0.80
2022-10-25T17:01:44.759Z,1.00
2022-10-25T17:04:11.391Z,1.35
2022-10-25T17:06:42.084Z,1.63
2022-10-25T17:09:09.087Z,0.95
2022-10-25T17:11:36.279Z,1.52
2022-10-25T17:14:02.716Z,1.13
2022-10-25T17:16:29.012Z,1.58
2022-10-25T17:18:56.011Z,1.52
2022-10-25T17:21:22.713Z,1.90
2022-10-25T17:23:49.013Z,1.35
2022-10-25T17:26:15.367Z,1.90
2022-10-25T17:28:44.164Z,1.30
2022-10-25T17:31:11.809Z,1.48
2022-10-25T17:33:38.123Z,1.15
2022-10-25T17:36:05.540Z,0.80
2022-10-25T17:38:31.849Z,1.33
2022-10-25T17:40:58.120Z,1.38
2022-10-25T17:43:24.464Z,0.77
2022-10-25T17:45:51.221Z,1.17
2022-10-25T17:48:17.584Z,0.90
2022-10-25T17:50:45.583Z,1.25
2022-10-25T17:53:12.173Z,1.15
2022-10-25T17:55:41.093Z,0.60
2022-10-25T17:58:07.580Z,0.90
2022-10-25T18:00:34.338Z,0.93
2022-10-25T18:03:00.682Z,1.23
2022-10-25T18:05:27.062Z,0.88
2022-10-25T18:07:54.189Z,0.80
2022-10-25T18:10:20.691Z,1.30
2022-10-25T18:12:47.809Z,1.60
2022-10-25T18:15:14.317Z,1.10
2022-10-25T18:17:41.195Z,1.10
2022-10-25T18:20:07.900Z,0.77
2022-10-25T18:22:34.214Z,1.60
2022-10-25T18:25:00.907Z,1.00
2022-10-25T18:27:27.231Z,1.98
2022-10-25T18:29:53.537Z,1.27
2022-10-25T18:32:20.531Z,0.93
2022-10-25T18:34:47.647Z,1.40
2022-10-25T18:37:14.041Z,1.10
2022-10-25T18:39:40.313Z,0.30
2022-10-25T18:42:06.634Z,1.08
2022-10-25T18:44:32.902Z,1.00
2022-10-25T18:46:59.235Z,2.30
2022-10-25T18:49:25.692Z,1.90
2022-10-25T18:51:51.964Z,1.05
2022-10-25T18:54:18.488Z,1.00
2022-10-25T18:56:44.770Z,0.80
2022-10-25T18:59:11.061Z,0.95
2022-10-25T19:01:37.966Z,1.13
2022-10-25T19:04:04.647Z,1.30
2022-10-25T19:06:31.494Z,2.25
2022-10-25T19:08:57.891Z,1.00
2022-10-25T19:11:24.176Z,0.50
2022-10-25T19:13:54.337Z,1.15
2022-10-25T19:16:20.930Z,0.95
2022-10-25T19:18:47.220Z,0.88
2022-10-25T19:21:14.690Z,1.27
2022-10-25T19:23:42.763Z,1.58
2022-10-25T19:26:10.709Z,1.70
2022-10-25T19:28:37.026Z,1.17
2022-10-25T19:31:07.243Z,1.73
2022-10-25T19:33:33.724Z,1.60
2022-10-25T19:36:04.140Z,1.85
2022-10-25T19:38:30.447Z,1.80
2022-10-25T19:41:00.676Z,1.00
2022-10-25T19:43:27.068Z,1.45
2022-10-25T19:45:57.724Z,1.20
2022-10-25T19:48:24.649Z,0.90
2022-10-25T19:50:51.200Z,1.10
2022-10-25T19:53:19.289Z,1.20
2022-10-25T19:55:46.181Z,0.80
2022-10-25T19:58:12.469Z,1.40
2022-10-25T20:00:38.803Z,1.38
2022-10-25T20:03:05.196Z,1.40
2022-10-25T20:05:31.522Z,1.35
2022-10-25T20:07:57.800Z,2.70
2022-10-25T20:10:24.267Z,2.05
2022-10-25T20:12:50.581Z,1.77
2022-10-25T20:15:16.970Z,1.00
2022-10-25T20:17:43.300Z,1.42
2022-10-25T20:20:09.997Z,1.65
2022-10-25T20:22:37.923Z,0.85
2022-10-25T20:25:05.297Z,1.45
2022-10-25T20:27:32.151Z,1.80
2022-10-25T20:29:58.562Z,1.50
2022-10-25T20:32:25.010Z,1.58
2022-10-25T20:34:51.503Z,1.35
2022-10-25T20:37:17.880Z,1.33
2022-10-25T20:39:44.168Z,1.10
2022-10-25T20:42:10.478Z,1.60
2022-10-25T20:44:36.772Z,2.15
2022-10-25T20:47:03.316Z,1.60
2022-10-25T20:49:29.587Z,1.00
2022-10-25T20:51:55.952Z,1.40
2022-10-25T20:54:22.315Z,1.73
2022-10-25T20:56:48.603Z,1.23
2022-10-25T20:59:14.916Z,1.70
2022-10-25T21:01:41.364Z,1.60
2022-10-25T21:04:08.724Z,2.30
2022-10-25T21:06:35.156Z,1.33
2022-10-25T21:09:01.628Z,1.98
2022-10-25T21:11:29.098Z,1.85
2022-10-25T21:13:55.589Z,1.70
2022-10-25T21:16:21.931Z,1.83
2022-10-25T21:18:48.208Z,0.90
2022-10-25T21:21:18.501Z,1.70
2022-10-25T21:23:45.874Z,2.53
2022-10-25T21:26:12.154Z,0.70
2022-10-25T21:28:39.754Z,0.85
2022-10-25T21:31:07.399Z,1.98
2022-10-25T21:33:33.733Z,2.50
2022-10-25T21:36:07.375Z,1.38
2022-10-25T21:38:33.860Z,1.20
2022-10-25T21:41:09.116Z,1.80
2022-10-25T21:43:35.791Z,1.30
2022-10-25T21:46:05.676Z,1.60
2022-10-25T21:48:32.166Z,1.88
2022-10-25T21:50:58.913Z,1.65
2022-10-25T21:53:25.275Z,1.90
2022-10-25T21:56:02.887Z,0.80
2022-10-25T21:58:29.160Z,2.25
2022-10-25T22:00:57.606Z,1.15
2022-10-25T22:03:26.861Z,1.10
2022-10-25T22:05:53.936Z,1.58
2022-10-25T22:08:21.875Z,1.30
2022-10-25T22:13:31.308Z,1.42
2022-10-25T22:16:17.860Z,1.52
2022-10-25T22:18:48.086Z,1.15
2022-10-25T22:21:14.466Z,2.33
2022-10-25T22:23:40.800Z,1.67
2022-10-25T22:26:11.277Z,2.40
2022-10-25T22:28:40.770Z,1.65
2022-10-25T22:31:12.017Z,0.80
2022-10-25T22:33:38.731Z,1.80
2022-10-25T22:36:06.529Z,1.23
2022-10-25T22:38:32.949Z,1.67
2022-10-25T22:41:03.716Z,1.83
2022-10-25T22:43:30.441Z,2.22
2022-10-25T22:45:59.737Z,1.88
2022-10-25T22:48:29.240Z,2.03
2022-10-25T22:50:55.580Z,1.90
2022-10-25T22:53:22.019Z,2.15
2022-10-25T22:55:58.581Z,2.78
2022-10-25T22:58:25.731Z,1.75
2022-10-25T23:00:57.849Z,1.85
2022-10-25T23:03:24.187Z,2.30
2022-10-25T23:05:58.489Z,2.72
2022-10-25T23:08:25.590Z,1.80
2022-10-25T23:11:02.866Z,1.40
2022-10-25T23:13:33.529Z,2.30
2022-10-25T23:15:59.825Z,1.15
2022-10-25T23:18:26.153Z,2.00
2022-10-25T23:20:53.583Z,1.83
2022-10-25T23:23:19.915Z,1.58
2022-10-25T23:25:46.759Z,1.25
2022-10-25T23:28:13.061Z,2.45
2022-10-25T23:30:40.093Z,1.73
2022-10-25T23:33:06.769Z,2.42
2022-10-25T23:35:33.870Z,2.38
2022-10-25T23:38:03.158Z,2.08
2022-10-25T23:40:31.558Z,1.83
2022-10-25T23:42:58.545Z,2.47
2022-10-25T23:45:25.231Z,2.47
2022-10-25T23:47:51.685Z,2.78
2022-10-25T23:50:18.127Z,2.20
2022-10-25T23:52:44.463Z,2.08
2022-10-25T23:55:11.168Z,2.30
2022-10-25T23:57:37.526Z,2.05
